sensor_id;sensor_type;location;lat;lon;timestamp;pressure;altitude;pressure_sealevel;temperature;humidity
37170;BME280;23062;13.952;100.608;2023-02-01T00:01:57;1010.71;;;26.05;52.32
37170;BME280;23062;13.952;100.608;2023-02-01T00:06:24;1010.78;;;26.06;52.22
37170;BME280;23062;13.952;100.608;2023-02-01T00:10:56;1010.84;;;26.06;52.28
37170;BME280;23062;13.952;100.608;2023-02-01T00:15:15;1010.90;;;26.05;52.28
37170;BME280;23062;13.952;100.608;2023-02-01T00:19:40;1010.92;;;26.05;52.30
37170;BME280;23062;13.952;100.608;2023-02-01T00:24:05;1011.00;;;26.05;52.32
37170;BME280;23062;13.952;100.608;2023-02-01T00:28:30;1011.06;;;26.05;52.32
37170;BME280;23062;13.952;100.608;2023-02-01T00:32:58;1011.09;;;26.08;52.34
37170;BME280;23062;13.952;100.608;2023-02-01T00:37:23;1011.20;;;26.15;52.23
37170;BME280;23062;13.952;100.608;2023-02-01T00:41:48;1011.28;;;26.18;52.33
37170;BME280;23062;13.952;100.608;2023-02-01T00:46:13;1011.26;;;26.18;52.64
37170;BME280;23062;13.952;100.608;2023-02-01T00:50:43;1011.34;;;26.22;52.59
37170;BME280;23062;13.952;100.608;2023-02-01T00:55:08;1011.40;;;26.29;52.49
37170;BME280;23062;13.952;100.608;2023-02-01T00:59:34;1011.43;;;26.10;52.97
37170;BME280;23062;13.952;100.608;2023-02-01T01:04:00;1011.48;;;25.84;53.15
37170;BME280;23062;13.952;100.608;2023-02-01T01:08:24;1011.51;;;25.90;53.00
37170;BME280;23062;13.952;100.608;2023-02-01T01:12:52;1011.64;;;25.86;52.47
37170;BME280;23062;13.952;100.608;2023-02-01T01:17:17;1011.72;;;26.03;51.67
37170;BME280;23062;13.952;100.608;2023-02-01T01:21:43;1011.74;;;26.29;51.11
37170;BME280;23062;13.952;100.608;2023-02-01T01:26:10;1011.79;;;26.41;50.58
37170;BME280;23062;13.952;100.608;2023-02-01T01:30:35;1011.93;;;26.50;50.28
37170;BME280;23062;13.952;100.608;2023-02-01T01:35:00;1012.02;;;26.47;49.29
37170;BME280;23062;13.952;100.608;2023-02-01T01:39:25;1012.02;;;26.51;49.33
37170;BME280;23062;13.952;100.608;2023-02-01T01:44:02;1012.13;;;26.60;48.69
37170;BME280;23062;13.952;100.608;2023-02-01T01:48:29;1012.13;;;26.67;48.10
37170;BME280;23062;13.952;100.608;2023-02-01T01:52:58;1012.21;;;26.69;47.32
37170;BME280;23062;13.952;100.608;2023-02-01T01:57:31;1012.22;;;26.73;46.80
37170;BME280;23062;13.952;100.608;2023-02-01T02:01:56;1012.34;;;26.79;46.95
37170;BME280;23062;13.952;100.608;2023-02-01T02:10:54;1012.41;;;26.88;46.19
37170;BME280;23062;13.952;100.608;2023-02-01T02:15:26;1012.45;;;26.89;45.85
37170;BME280;23062;13.952;100.608;2023-02-01T02:34:28;1012.61;;;27.00;46.01
37170;BME280;23062;13.952;100.608;2023-02-01T02:39:05;1012.57;;;27.03;45.97
37170;BME280;23062;13.952;100.608;2023-02-01T02:43:53;1012.57;;;27.05;46.09
37170;BME280;23062;13.952;100.608;2023-02-01T02:48:37;1012.65;;;27.10;45.92
37170;BME280;23062;13.952;100.608;2023-02-01T02:57:59;1012.68;;;27.14;45.50
37170;BME280;23062;13.952;100.608;2023-02-01T03:02:41;1012.70;;;27.24;44.06
37170;BME280;23062;13.952;100.608;2023-02-01T03:12:18;1012.66;;;27.40;42.64
37170;BME280;23062;13.952;100.608;2023-02-01T03:17:12;1012.72;;;27.52;42.09
37170;BME280;23062;13.952;100.608;2023-02-01T03:21:50;1012.77;;;27.63;41.66
37170;BME280;23062;13.952;100.608;2023-02-01T03:26:17;1012.68;;;27.76;40.68
37170;BME280;23062;13.952;100.608;2023-02-01T03:30:44;1012.65;;;27.68;40.91
37170;BME280;23062;13.952;100.608;2023-02-01T03:35:08;1012.68;;;27.67;41.38
37170;BME280;23062;13.952;100.608;2023-02-01T03:39:36;1012.66;;;27.91;40.26
37170;BME280;23062;13.952;100.608;2023-02-01T03:49:04;1012.59;;;27.83;41.25
37170;BME280;23062;13.952;100.608;2023-02-01T03:53:30;1012.59;;;27.94;41.08
37170;BME280;23062;13.952;100.608;2023-02-01T03:58:11;1012.59;;;27.94;41.39
37170;BME280;23062;13.952;100.608;2023-02-01T04:02:35;1012.60;;;27.99;40.21
37170;BME280;23062;13.952;100.608;2023-02-01T04:07:01;1012.54;;;28.00;40.03
37170;BME280;23062;13.952;100.608;2023-02-01T04:11:26;1012.51;;;28.04;40.13
37170;BME280;23062;13.952;100.608;2023-02-01T04:15:52;1012.38;;;28.13;40.32
37170;BME280;23062;13.952;100.608;2023-02-01T04:20:17;1012.27;;;28.16;40.27
37170;BME280;23062;13.952;100.608;2023-02-01T04:24:43;1012.18;;;28.03;41.22
37170;BME280;23062;13.952;100.608;2023-02-01T04:29:09;1012.09;;;28.15;40.66
37170;BME280;23062;13.952;100.608;2023-02-01T04:33:35;1011.93;;;28.13;40.96
37170;BME280;23062;13.952;100.608;2023-02-01T04:38:01;1011.87;;;28.27;40.66
37170;BME280;23062;13.952;100.608;2023-02-01T04:42:27;1011.72;;;28.33;40.27
37170;BME280;23062;13.952;100.608;2023-02-01T04:46:52;1011.67;;;28.25;40.53
37170;BME280;23062;13.952;100.608;2023-02-01T04:51:17;1011.57;;;28.31;40.58
37170;BME280;23062;13.952;100.608;2023-02-01T04:55:47;1011.54;;;28.39;40.42
37170;BME280;23062;13.952;100.608;2023-02-01T05:00:12;1011.47;;;28.47;40.56
37170;BME280;23062;13.952;100.608;2023-02-01T05:04:38;1011.38;;;28.36;41.20
37170;BME280;23062;13.952;100.608;2023-02-01T05:09:03;1011.30;;;28.57;40.90
37170;BME280;23062;13.952;100.608;2023-02-01T05:13:28;1011.20;;;28.40;41.35
37170;BME280;23062;13.952;100.608;2023-02-01T05:18:11;1011.11;;;28.68;40.00
37170;BME280;23062;13.952;100.608;2023-02-01T05:22:35;1011.03;;;28.78;39.33
37170;BME280;23062;13.952;100.608;2023-02-01T05:27:04;1010.89;;;28.56;40.19
37170;BME280;23062;13.952;100.608;2023-02-01T05:31:29;1010.80;;;28.53;40.36
37170;BME280;23062;13.952;100.608;2023-02-01T05:35:54;1010.75;;;28.55;40.34
37170;BME280;23062;13.952;100.608;2023-02-01T05:40:19;1010.63;;;28.59;40.24
37170;BME280;23062;13.952;100.608;2023-02-01T05:44:47;1010.47;;;28.63;40.10
37170;BME280;23062;13.952;100.608;2023-02-01T05:49:12;1010.39;;;28.70;39.82
37170;BME280;23062;13.952;100.608;2023-02-01T05:53:40;1010.21;;;28.84;39.14
37170;BME280;23062;13.952;100.608;2023-02-01T05:58:06;1010.14;;;28.96;38.83
37170;BME280;23062;13.952;100.608;2023-02-01T06:02:31;1010.02;;;28.93;38.89
37170;BME280;23062;13.952;100.608;2023-02-01T06:06:56;1009.84;;;28.75;39.35
37170;BME280;23062;13.952;100.608;2023-02-01T06:11:20;1009.73;;;28.77;39.22
37170;BME280;23062;13.952;100.608;2023-02-01T06:15:45;1009.54;;;28.88;39.06
37170;BME280;23062;13.952;100.608;2023-02-01T06:20:11;1009.47;;;28.81;39.02
37170;BME280;23062;13.952;100.608;2023-02-01T06:24:36;1009.36;;;28.86;38.64
37170;BME280;23062;13.952;100.608;2023-02-01T06:29:01;1009.23;;;28.85;38.38
37170;BME280;23062;13.952;100.608;2023-02-01T06:33:26;1009.09;;;28.98;37.70
37170;BME280;23062;13.952;100.608;2023-02-01T06:37:51;1008.97;;;28.95;37.74
37170;BME280;23062;13.952;100.608;2023-02-01T06:42:17;1008.83;;;29.09;37.30
37170;BME280;23062;13.952;100.608;2023-02-01T06:46:44;1008.62;;;29.39;36.37
37170;BME280;23062;13.952;100.608;2023-02-01T06:51:22;1008.58;;;29.40;36.87
37170;BME280;23062;13.952;100.608;2023-02-01T06:55:57;1008.49;;;29.37;36.44
37170;BME280;23062;13.952;100.608;2023-02-01T07:00:23;1008.40;;;29.20;36.99
37170;BME280;23062;13.952;100.608;2023-02-01T07:04:48;1008.32;;;29.18;37.14
37170;BME280;23062;13.952;100.608;2023-02-01T07:09:12;1008.20;;;29.26;37.04
37170;BME280;23062;13.952;100.608;2023-02-01T07:13:38;1008.09;;;29.20;37.31
37170;BME280;23062;13.952;100.608;2023-02-01T07:18:02;1007.92;;;29.19;37.37
37170;BME280;23062;13.952;100.608;2023-02-01T07:22:27;1007.80;;;29.24;37.00
37170;BME280;23062;13.952;100.608;2023-02-01T07:26:53;1007.76;;;29.23;36.96
37170;BME280;23062;13.952;100.608;2023-02-01T07:31:20;1007.66;;;29.28;36.56
37170;BME280;23062;13.952;100.608;2023-02-01T07:35:45;1007.56;;;29.26;36.92
37170;BME280;23062;13.952;100.608;2023-02-01T07:40:14;1007.48;;;29.30;36.90
37170;BME280;23062;13.952;100.608;2023-02-01T07:44:39;1007.43;;;29.37;36.75
37170;BME280;23062;13.952;100.608;2023-02-01T07:49:04;1007.44;;;29.34;36.85
37170;BME280;23062;13.952;100.608;2023-02-01T07:53:30;1007.35;;;29.38;36.91
37170;BME280;23062;13.952;100.608;2023-02-01T07:57:59;1007.34;;;29.34;36.85
37170;BME280;23062;13.952;100.608;2023-02-01T08:02:23;1007.27;;;29.37;36.90
37170;BME280;23062;13.952;100.608;2023-02-01T08:06:48;1007.31;;;29.69;36.02
37170;BME280;23062;13.952;100.608;2023-02-01T08:11:13;1007.27;;;29.54;36.76
37170;BME280;23062;13.952;100.608;2023-02-01T08:15:41;1007.22;;;29.51;36.84
37170;BME280;23062;13.952;100.608;2023-02-01T08:20:06;1007.18;;;29.44;37.07
37170;BME280;23062;13.952;100.608;2023-02-01T08:24:32;1007.19;;;29.46;37.02
37170;BME280;23062;13.952;100.608;2023-02-01T08:28:58;1007.12;;;29.44;37.04
37170;BME280;23062;13.952;100.608;2023-02-01T08:33:23;1007.06;;;29.34;37.48
37170;BME280;23062;13.952;100.608;2023-02-01T08:37:49;1007.02;;;29.26;37.88
37170;BME280;23062;13.952;100.608;2023-02-01T08:42:14;1007.00;;;29.23;38.07
37170;BME280;23062;13.952;100.608;2023-02-01T08:46:57;1006.97;;;29.21;38.30
37170;BME280;23062;13.952;100.608;2023-02-01T08:51:24;1006.97;;;29.23;38.38
37170;BME280;23062;13.952;100.608;2023-02-01T08:55:51;1007.00;;;29.21;38.54
37170;BME280;23062;13.952;100.608;2023-02-01T09:00:17;1007.06;;;29.23;38.58
37170;BME280;23062;13.952;100.608;2023-02-01T09:04:43;1007.09;;;29.22;38.71
37170;BME280;23062;13.952;100.608;2023-02-01T09:09:09;1007.14;;;29.20;38.86
37170;BME280;23062;13.952;100.608;2023-02-01T09:13:34;1007.10;;;29.19;38.99
37170;BME280;23062;13.952;100.608;2023-02-01T09:17:59;1007.15;;;29.19;39.07
37170;BME280;23062;13.952;100.608;2023-02-01T09:22:24;1007.13;;;29.18;39.21
37170;BME280;23062;13.952;100.608;2023-02-01T09:26:49;1007.13;;;29.19;39.38
37170;BME280;23062;13.952;100.608;2023-02-01T09:31:14;1007.17;;;29.19;39.49
37170;BME280;23062;13.952;100.608;2023-02-01T09:35:38;1007.20;;;29.19;39.52
37170;BME280;23062;13.952;100.608;2023-02-01T09:40:09;1007.18;;;29.19;39.55
37170;BME280;23062;13.952;100.608;2023-02-01T09:49:26;1007.20;;;29.20;39.55
37170;BME280;23062;13.952;100.608;2023-02-01T10:03:13;1007.30;;;29.21;39.67
37170;BME280;23062;13.952;100.608;2023-02-01T10:07:48;1007.34;;;29.21;39.66
37170;BME280;23062;13.952;100.608;2023-02-01T10:12:43;1007.36;;;29.20;39.71
37170;BME280;23062;13.952;100.608;2023-02-01T10:17:26;1007.41;;;29.21;39.67
37170;BME280;23062;13.952;100.608;2023-02-01T10:22:03;1007.51;;;29.21;39.67
37170;BME280;23062;13.952;100.608;2023-02-01T10:26:26;1007.50;;;29.20;39.64
37170;BME280;23062;13.952;100.608;2023-02-01T10:30:54;1007.53;;;29.21;39.52
37170;BME280;23062;13.952;100.608;2023-02-01T10:35:26;1007.55;;;29.30;39.22
37170;BME280;23062;13.952;100.608;2023-02-01T10:39:48;1007.55;;;29.35;39.20
37170;BME280;23062;13.952;100.608;2023-02-01T10:44:19;1007.56;;;29.37;39.46
37170;BME280;23062;13.952;100.608;2023-02-01T10:48:46;1007.65;;;29.46;42.88
37170;BME280;23062;13.952;100.608;2023-02-01T10:57:51;1007.76;;;29.48;43.28
37170;BME280;23062;13.952;100.608;2023-02-01T11:07:19;1007.78;;;29.42;43.55
37170;BME280;23062;13.952;100.608;2023-02-01T11:16:16;1007.82;;;29.39;43.95
37170;BME280;23062;13.952;100.608;2023-02-01T11:20:42;1007.90;;;29.41;43.90
37170;BME280;23062;13.952;100.608;2023-02-01T11:25:13;1007.94;;;29.35;44.17
37170;BME280;23062;13.952;100.608;2023-02-01T11:29:38;1007.95;;;29.40;43.98
37170;BME280;23062;13.952;100.608;2023-02-01T11:34:10;1008.06;;;29.42;43.71
37170;BME280;23062;13.952;100.608;2023-02-01T11:38:34;1008.12;;;29.40;43.79
37170;BME280;23062;13.952;100.608;2023-02-01T11:43:25;1008.22;;;29.28;44.40
37170;BME280;23062;13.952;100.608;2023-02-01T11:47:53;1008.22;;;29.19;44.98
37170;BME280;23062;13.952;100.608;2023-02-01T11:52:42;1008.26;;;29.12;45.13
37170;BME280;23062;13.952;100.608;2023-02-01T12:02:08;1008.34;;;29.01;45.46
37170;BME280;23062;13.952;100.608;2023-02-01T12:11:26;1008.45;;;29.09;45.28
37170;BME280;23062;13.952;100.608;2023-02-01T12:25:30;1008.73;;;29.33;45.01
37170;BME280;23062;13.952;100.608;2023-02-01T12:39:39;1009.05;;;29.12;45.84
37170;BME280;23062;13.952;100.608;2023-02-01T12:48:42;1009.24;;;29.06;45.96
37170;BME280;23062;13.952;100.608;2023-02-01T12:53:22;1009.29;;;29.06;45.79
37170;BME280;23062;13.952;100.608;2023-02-01T12:57:46;1009.40;;;29.03;45.78
37170;BME280;23062;13.952;100.608;2023-02-01T13:07:17;1009.58;;;28.78;46.70
37170;BME280;23062;13.952;100.608;2023-02-01T13:11:42;1009.64;;;28.72;46.97
37170;BME280;23062;13.952;100.608;2023-02-01T13:16:15;1009.72;;;28.69;46.98
37170;BME280;23062;13.952;100.608;2023-02-01T13:21:02;1009.77;;;28.68;47.00
37170;BME280;23062;13.952;100.608;2023-02-01T13:25:34;1009.77;;;28.66;47.14
37170;BME280;23062;13.952;100.608;2023-02-01T13:29:57;1009.84;;;28.65;47.29
37170;BME280;23062;13.952;100.608;2023-02-01T13:34:48;1009.89;;;28.86;46.56
37170;BME280;23062;13.952;100.608;2023-02-01T13:44:01;1010.02;;;29.12;45.79
37170;BME280;23062;13.952;100.608;2023-02-01T13:52:58;1010.14;;;29.15;45.73
37170;BME280;23062;13.952;100.608;2023-02-01T13:57:34;1010.22;;;29.15;45.72
37170;BME280;23062;13.952;100.608;2023-02-01T14:02:35;1010.29;;;29.15;45.81
37170;BME280;23062;13.952;100.608;2023-02-01T14:10:58;1010.36;;;29.15;45.85
37170;BME280;23062;13.952;100.608;2023-02-01T14:15:25;1010.31;;;29.13;45.90
37170;BME280;23062;13.952;100.608;2023-02-01T14:19:52;1010.35;;;29.13;45.93
37170;BME280;23062;13.952;100.608;2023-02-01T14:24:26;1010.37;;;29.13;45.96
37170;BME280;23062;13.952;100.608;2023-02-01T14:29:00;1010.39;;;29.12;46.00
37170;BME280;23062;13.952;100.608;2023-02-01T14:33:27;1010.41;;;29.12;46.01
37170;BME280;23062;13.952;100.608;2023-02-01T14:37:53;1010.46;;;29.11;46.07
37170;BME280;23062;13.952;100.608;2023-02-01T14:51:47;1010.53;;;29.08;46.18
37170;BME280;23062;13.952;100.608;2023-02-01T14:56:15;1010.51;;;29.08;46.26
37170;BME280;23062;13.952;100.608;2023-02-01T15:00:41;1010.56;;;29.08;46.28
37170;BME280;23062;13.952;100.608;2023-02-01T15:05:28;1010.52;;;29.07;46.25
37170;BME280;23062;13.952;100.608;2023-02-01T15:09:49;1010.52;;;29.06;46.30
37170;BME280;23062;13.952;100.608;2023-02-01T15:14:15;1010.53;;;29.05;46.36
37170;BME280;23062;13.952;100.608;2023-02-01T15:18:40;1010.48;;;29.05;46.38
37170;BME280;23062;13.952;100.608;2023-02-01T15:23:14;1010.53;;;29.05;46.36
37170;BME280;23062;13.952;100.608;2023-02-01T15:27:34;1010.47;;;29.05;46.41
37170;BME280;23062;13.952;100.608;2023-02-01T15:31:59;1010.42;;;29.03;46.39
37170;BME280;23062;13.952;100.608;2023-02-01T15:36:24;1010.43;;;29.03;46.42
37170;BME280;23062;13.952;100.608;2023-02-01T15:45:31;1010.38;;;29.02;46.44
37170;BME280;23062;13.952;100.608;2023-02-01T15:49:59;1010.36;;;29.02;46.42
37170;BME280;23062;13.952;100.608;2023-02-01T15:54:26;1010.35;;;29.02;46.39
37170;BME280;23062;13.952;100.608;2023-02-01T15:58:57;1010.31;;;29.01;46.42
37170;BME280;23062;13.952;100.608;2023-02-01T16:03:36;1010.32;;;28.99;46.48
37170;BME280;23062;13.952;100.608;2023-02-01T16:08:13;1010.33;;;29.00;46.45
37170;BME280;23062;13.952;100.608;2023-02-01T16:17:09;1010.48;;;28.99;46.54
37170;BME280;23062;13.952;100.608;2023-02-01T16:21:36;1010.53;;;28.99;46.57
37170;BME280;23062;13.952;100.608;2023-02-01T16:26:02;1010.59;;;28.96;46.62
37170;BME280;23062;13.952;100.608;2023-02-01T16:30:27;1010.58;;;28.97;46.62
37170;BME280;23062;13.952;100.608;2023-02-01T16:34:52;1010.62;;;28.96;46.62
37170;BME280;23062;13.952;100.608;2023-02-01T16:39:22;1010.61;;;28.98;46.64
37170;BME280;23062;13.952;100.608;2023-02-01T16:43:44;1010.59;;;28.97;46.64
37170;BME280;23062;13.952;100.608;2023-02-01T16:48:16;1010.63;;;28.96;46.68
37170;BME280;23062;13.952;100.608;2023-02-01T16:52:36;1010.62;;;28.96;46.69
37170;BME280;23062;13.952;100.608;2023-02-01T16:57:03;1010.55;;;28.95;46.71
37170;BME280;23062;13.952;100.608;2023-02-01T17:01:28;1010.61;;;28.94;46.78
37170;BME280;23062;13.952;100.608;2023-02-01T17:05:54;1010.58;;;28.93;46.83
37170;BME280;23062;13.952;100.608;2023-02-01T17:10:25;1010.57;;;28.95;46.88
37170;BME280;23062;13.952;100.608;2023-02-01T17:14:52;1010.52;;;28.92;46.96
37170;BME280;23062;13.952;100.608;2023-02-01T17:19:19;1010.45;;;28.92;46.98
37170;BME280;23062;13.952;100.608;2023-02-01T17:23:46;1010.38;;;28.92;47.05
37170;BME280;23062;13.952;100.608;2023-02-01T17:28:14;1010.38;;;28.92;47.11
37170;BME280;23062;13.952;100.608;2023-02-01T17:32:39;1010.36;;;28.91;47.20
37170;BME280;23062;13.952;100.608;2023-02-01T17:37:08;1010.34;;;28.89;47.31
37170;BME280;23062;13.952;100.608;2023-02-01T17:41:32;1010.21;;;28.89;47.33
37170;BME280;23062;13.952;100.608;2023-02-01T17:46:03;1010.14;;;28.88;47.36
37170;BME280;23062;13.952;100.608;2023-02-01T17:50:29;1010.09;;;28.88;47.43
37170;BME280;23062;13.952;100.608;2023-02-01T17:54:56;1010.06;;;28.86;47.51
37170;BME280;23062;13.952;100.608;2023-02-01T17:59:20;1010.04;;;28.86;47.57
37170;BME280;23062;13.952;100.608;2023-02-01T18:03:46;1009.98;;;28.84;47.61
37170;BME280;23062;13.952;100.608;2023-02-01T18:08:11;1009.90;;;28.84;47.62
37170;BME280;23062;13.952;100.608;2023-02-01T18:12:36;1009.88;;;28.83;47.59
37170;BME280;23062;13.952;100.608;2023-02-01T18:17:01;1009.84;;;28.83;47.55
37170;BME280;23062;13.952;100.608;2023-02-01T18:21:39;1009.81;;;28.82;47.59
37170;BME280;23062;13.952;100.608;2023-02-01T18:25:59;1009.82;;;28.81;47.58
37170;BME280;23062;13.952;100.608;2023-02-01T18:30:27;1009.88;;;28.81;47.60
37170;BME280;23062;13.952;100.608;2023-02-01T18:34:52;1009.81;;;28.79;47.55
37170;BME280;23062;13.952;100.608;2023-02-01T18:39:18;1009.75;;;28.81;47.52
37170;BME280;23062;13.952;100.608;2023-02-01T18:43:44;1009.73;;;28.78;47.55
37170;BME280;23062;13.952;100.608;2023-02-01T18:48:10;1009.66;;;28.79;47.57
37170;BME280;23062;13.952;100.608;2023-02-01T18:52:35;1009.61;;;28.78;47.55
37170;BME280;23062;13.952;100.608;2023-02-01T18:57:00;1009.57;;;28.76;47.64
37170;BME280;23062;13.952;100.608;2023-02-01T19:01:25;1009.48;;;28.74;47.65
37170;BME280;23062;13.952;100.608;2023-02-01T19:05:54;1009.40;;;28.76;47.61
37170;BME280;23062;13.952;100.608;2023-02-01T19:10:21;1009.32;;;28.74;47.63
37170;BME280;23062;13.952;100.608;2023-02-01T19:14:46;1009.32;;;28.76;47.56
37170;BME280;23062;13.952;100.608;2023-02-01T19:19:11;1009.24;;;28.77;47.52
37170;BME280;23062;13.952;100.608;2023-02-01T19:23:37;1009.18;;;28.76;47.58
37170;BME280;23062;13.952;100.608;2023-02-01T19:28:02;1009.20;;;28.77;47.59
37170;BME280;23062;13.952;100.608;2023-02-01T19:32:27;1009.18;;;28.76;47.64
37170;BME280;23062;13.952;100.608;2023-02-01T19:36:53;1009.09;;;28.75;47.64
37170;BME280;23062;13.952;100.608;2023-02-01T19:41:19;1009.06;;;28.76;47.69
37170;BME280;23062;13.952;100.608;2023-02-01T19:45:43;1009.08;;;28.75;47.76
37170;BME280;23062;13.952;100.608;2023-02-01T19:50:10;1009.05;;;28.75;47.81
37170;BME280;23062;13.952;100.608;2023-02-01T19:54:35;1008.99;;;28.75;47.80
37170;BME280;23062;13.952;100.608;2023-02-01T19:58:59;1008.97;;;28.75;47.84
37170;BME280;23062;13.952;100.608;2023-02-01T20:03:26;1008.94;;;28.74;47.89
37170;BME280;23062;13.952;100.608;2023-02-01T20:07:52;1008.91;;;28.74;47.89
37170;BME280;23062;13.952;100.608;2023-02-01T20:12:17;1008.92;;;28.73;47.92
37170;BME280;23062;13.952;100.608;2023-02-01T20:16:42;1008.93;;;28.72;47.93
37170;BME280;23062;13.952;100.608;2023-02-01T20:21:07;1008.89;;;28.73;47.93
37170;BME280;23062;13.952;100.608;2023-02-01T20:25:32;1008.89;;;28.74;47.93
37170;BME280;23062;13.952;100.608;2023-02-01T20:29:58;1008.93;;;28.72;48.00
37170;BME280;23062;13.952;100.608;2023-02-01T20:34:22;1008.92;;;28.71;48.06
37170;BME280;23062;13.952;100.608;2023-02-01T20:38:47;1008.92;;;28.60;48.44
37170;BME280;23062;13.952;100.608;2023-02-01T20:43:12;1008.89;;;28.49;48.77
37170;BME280;23062;13.952;100.608;2023-02-01T20:47:37;1008.86;;;28.41;48.90
37170;BME280;23062;13.952;100.608;2023-02-01T20:52:03;1008.86;;;28.10;50.01
37170;BME280;23062;13.952;100.608;2023-02-01T20:56:28;1008.92;;;27.91;50.72
37170;BME280;23062;13.952;100.608;2023-02-01T21:00:53;1008.88;;;27.88;50.84
37170;BME280;23062;13.952;100.608;2023-02-01T21:05:18;1008.86;;;27.82;50.87
37170;BME280;23062;13.952;100.608;2023-02-01T21:09:43;1008.82;;;27.75;51.13
37170;BME280;23062;13.952;100.608;2023-02-01T21:14:07;1008.80;;;27.77;51.23
37170;BME280;23062;13.952;100.608;2023-02-01T21:18:32;1008.82;;;27.65;51.92
37170;BME280;23062;13.952;100.608;2023-02-01T21:22:57;1008.86;;;27.65;52.20
37170;BME280;23062;13.952;100.608;2023-02-01T21:27:23;1008.88;;;27.62;52.32
37170;BME280;23062;13.952;100.608;2023-02-01T21:31:47;1008.92;;;27.62;51.96
37170;BME280;23062;13.952;100.608;2023-02-01T21:36:12;1008.95;;;27.67;51.73
37170;BME280;23062;13.952;100.608;2023-02-01T21:40:38;1008.97;;;27.56;52.13
37170;BME280;23062;13.952;100.608;2023-02-01T21:45:13;1009.02;;;27.57;52.04
37170;BME280;23062;13.952;100.608;2023-02-01T21:49:34;1009.05;;;27.51;52.17
37170;BME280;23062;13.952;100.608;2023-02-01T21:53:59;1009.16;;;27.22;53.14
37170;BME280;23062;13.952;100.608;2023-02-01T21:58:24;1009.26;;;27.31;52.95
37170;BME280;23062;13.952;100.608;2023-02-01T22:02:52;1009.31;;;27.29;53.64
37170;BME280;23062;13.952;100.608;2023-02-01T22:07:17;1009.39;;;27.41;53.90
37170;BME280;23062;13.952;100.608;2023-02-01T22:11:45;1009.41;;;27.42;54.17
37170;BME280;23062;13.952;100.608;2023-02-01T22:16:10;1009.46;;;27.38;54.52
37170;BME280;23062;13.952;100.608;2023-02-01T22:20:36;1009.44;;;27.24;55.47
37170;BME280;23062;13.952;100.608;2023-02-01T22:25:01;1009.50;;;27.35;55.40
37170;BME280;23062;13.952;100.608;2023-02-01T22:29:27;1009.53;;;27.20;56.07
37170;BME280;23062;13.952;100.608;2023-02-01T22:33:52;1009.57;;;27.41;55.72
37170;BME280;23062;13.952;100.608;2023-02-01T22:38:17;1009.66;;;27.42;55.77
37170;BME280;23062;13.952;100.608;2023-02-01T22:42:43;1009.76;;;27.42;55.05
37170;BME280;23062;13.952;100.608;2023-02-01T22:47:09;1009.82;;;27.51;55.03
37170;BME280;23062;13.952;100.608;2023-02-01T22:51:34;1009.89;;;27.61;55.05
37170;BME280;23062;13.952;100.608;2023-02-01T22:56:04;1009.95;;;27.52;55.58
37170;BME280;23062;13.952;100.608;2023-02-01T23:00:29;1009.95;;;27.47;55.45
37170;BME280;23062;13.952;100.608;2023-02-01T23:04:57;1009.99;;;27.48;55.63
37170;BME280;23062;13.952;100.608;2023-02-01T23:09:25;1010.00;;;27.47;55.37
37170;BME280;23062;13.952;100.608;2023-02-01T23:13:51;1010.03;;;27.47;55.65
37170;BME280;23062;13.952;100.608;2023-02-01T23:18:17;1010.05;;;27.47;55.79
37170;BME280;23062;13.952;100.608;2023-02-01T23:22:46;1010.14;;;27.45;55.73
37170;BME280;23062;13.952;100.608;2023-02-01T23:27:11;1010.21;;;27.47;55.69
37170;BME280;23062;13.952;100.608;2023-02-01T23:31:38;1010.22;;;27.44;55.48
37170;BME280;23062;13.952;100.608;2023-02-01T23:36:05;1010.32;;;27.44;55.68
37170;BME280;23062;13.952;100.608;2023-02-01T23:40:32;1010.42;;;27.44;55.77
37170;BME280;23062;13.952;100.608;2023-02-01T23:45:05;1010.48;;;27.43;55.78
37170;BME280;23062;13.952;100.608;2023-02-01T23:49:32;1010.50;;;27.41;55.93
37170;BME280;23062;13.952;100.608;2023-02-01T23:53:58;1010.57;;;27.41;55.90
37170;BME280;23062;13.952;100.608;2023-02-01T23:58:23;1010.66;;;27.38;55.79
